Naples Municipal Airport
KAPF : now visible

Airfield :











YOU CAN JOIN US ON...

 
LOGIN :

Register | Disclaimer

   EN    FR    IT 

 









Legend :    VFR   Marginal VFR   IFR   Intensive IFR   Very Intensive IFR
Visi :
Ceiling :
>= 8 km
>= 3000ft
5 to 8 km
1000 to 3000 ft
1500m to 5 km
500 to 1000 ft
800 to 1500m
200 to 500 ft
< 800m
< 200 ft
Symbols :   Thunderstorms  Fog  Heavy snow  Heavy precipitations  Wind > 20 kt






- Airport Elevation : 8 ft


KAPF - Naples Municipal

CURRENT METAR :
  • 281553Z 14010KT 10SM CLR 27/16 A3008 RMK ASOS XMIT OTS.

EXPIRED METARs :
  • 281453Z 09010KT 10SM CLR 27/18 A3008 RMK AO2 SLP186 T02720183 51012 $

TAF KAPF
Valid from the 28 at 15:00 until the 29 at 12:00 UTC


281448Z 2815/2912 12008KT P6SM FEW035
FM281900 20012KT P6SM SCT030
FM290100 VRB03KT P6SM SCT025
FM290600 VRB03KT 6SM BR BCFG FEW025



MET'MAP, your aeronautical weather chart ! - Copyright ORBIFLY December 2007 - Disclaimer

ORBIFLY MET'MAP TEAM :

Programming & Development : Alexandra Zaïnal
Concept & original design : Baudouin d'Aumeries
Assistance for programming : Marc-Olivier Méhu
Technical & hardware support : Manuel Goepfert

Contact : metmap@orbifly.com




SOURCES & CREDITS :

   NOAA       Earth
Advisory